createdAt,value
2018-08-17T00:02:27.236Z,3.73
2018-08-17T00:04:57.696Z,4.37
2018-08-17T00:07:30.210Z,3.03
2018-08-17T00:10:00.276Z,3.57
2018-08-17T00:12:29.395Z,3.43
2018-08-17T00:14:58.988Z,3.50
2018-08-17T00:17:29.810Z,3.60
2018-08-17T00:20:03.299Z,3.40
2018-08-17T00:22:32.704Z,2.70
2018-08-17T00:25:01.766Z,3.03
2018-08-17T00:27:32.812Z,3.10
2018-08-17T00:30:03.161Z,2.87
2018-08-17T00:32:32.413Z,3.63
2018-08-17T00:35:01.860Z,3.40
2018-08-17T00:37:32.196Z,2.90
2018-08-17T00:40:01.465Z,2.97
2018-08-17T00:42:31.710Z,3.33
2018-08-17T00:45:01.814Z,3.40
2018-08-17T00:47:31.805Z,3.27
2018-08-17T00:50:01.224Z,3.30
2018-08-17T00:52:30.452Z,3.10
2018-08-17T00:54:59.523Z,2.87
2018-08-17T00:57:28.608Z,3.37
2018-08-17T00:59:57.984Z,3.87
2018-08-17T01:02:28.913Z,3.07
2018-08-17T01:04:59.129Z,3.60
2018-08-17T01:07:28.780Z,3.57
2018-08-17T01:09:58.426Z,3.63
2018-08-17T01:12:27.744Z,3.47
2018-08-17T01:14:59.099Z,3.10
2018-08-17T01:17:29.783Z,3.27
2018-08-17T01:20:00.683Z,3.43
2018-08-17T01:22:29.868Z,3.67
2018-08-17T01:24:59.342Z,3.80
2018-08-17T01:27:28.311Z,4.50
2018-08-17T01:29:57.522Z,4.13
2018-08-17T01:32:28.360Z,3.73
2018-08-17T01:34:57.808Z,3.20
2018-08-17T01:37:27.436Z,4.00
2018-08-17T01:39:56.568Z,3.80
2018-08-17T01:42:26.823Z,4.23
2018-08-17T01:44:57.951Z,4.43
2018-08-17T01:47:28.140Z,3.67
2018-08-17T01:49:58.563Z,3.70
2018-08-17T01:52:29.004Z,3.87
2018-08-17T01:54:58.712Z,4.03
2018-08-17T01:57:30.261Z,3.80
2018-08-17T02:00:03.782Z,3.87
2018-08-17T02:02:34.194Z,3.67
2018-08-17T02:05:04.983Z,3.67
2018-08-17T02:07:34.735Z,3.60
2018-08-17T02:10:04.990Z,4.17
2018-08-17T02:12:34.039Z,3.73
2018-08-17T02:15:03.533Z,3.83
2018-08-17T02:17:33.543Z,3.67
2018-08-17T02:20:03.110Z,3.67
2018-08-17T02:22:33.704Z,3.53
2018-08-17T02:25:11.560Z,3.63
2018-08-17T02:27:41.670Z,3.30
2018-08-17T02:30:13.470Z,3.50
2018-08-17T02:32:43.599Z,3.47
2018-08-17T02:35:13.616Z,3.50
2018-08-17T02:37:44.030Z,3.40
2018-08-17T02:40:13.240Z,3.10
2018-08-17T02:42:42.370Z,2.90
2018-08-17T02:45:11.879Z,3.83
2018-08-17T02:47:42.000Z,3.33
2018-08-17T02:50:11.060Z,3.50
2018-08-17T02:52:40.444Z,2.83
2018-08-17T02:55:09.497Z,3.33
2018-08-17T02:57:38.483Z,2.70
2018-08-17T03:00:09.760Z,3.07
2018-08-17T03:02:40.130Z,2.67
2018-08-17T03:05:09.503Z,2.73
2018-08-17T03:07:39.096Z,3.40
2018-08-17T03:10:08.140Z,3.30
2018-08-17T03:12:37.125Z,3.10
2018-08-17T03:15:21.600Z,3.53
2018-08-17T03:21:01.462Z,3.27
2018-08-17T03:23:30.819Z,3.00
2018-08-17T03:25:59.907Z,2.93
2018-08-17T03:28:35.056Z,3.47
2018-08-17T03:31:04.188Z,2.83
2018-08-17T03:33:33.552Z,2.60
2018-08-17T03:36:03.285Z,2.77
2018-08-17T03:38:34.191Z,2.73
2018-08-17T03:41:03.220Z,3.03
2018-08-17T03:43:32.188Z,2.50
2018-08-17T03:46:01.172Z,2.97
2018-08-17T03:48:31.839Z,2.60
2018-08-17T03:51:00.881Z,2.93
2018-08-17T03:53:29.939Z,3.10
2018-08-17T03:55:58.982Z,2.90
2018-08-17T03:58:27.898Z,3.70
2018-08-17T04:00:56.876Z,2.90
2018-08-17T04:03:26.425Z,2.83
2018-08-17T04:05:55.482Z,3.27
2018-08-17T04:08:24.979Z,2.90
2018-08-17T04:10:53.988Z,3.30
2018-08-17T04:13:23.129Z,3.70
2018-08-17T04:15:52.274Z,2.67
2018-08-17T04:18:21.784Z,2.53
2018-08-17T04:20:51.104Z,3.40
2018-08-17T04:23:20.229Z,2.60
2018-08-17T04:25:49.798Z,2.83
2018-08-17T04:28:18.780Z,3.17
2018-08-17T04:30:48.226Z,2.97
2018-08-17T04:33:17.328Z,3.17
2018-08-17T04:35:46.477Z,3.17
2018-08-17T04:38:15.429Z,3.30
2018-08-17T04:40:45.258Z,3.50
2018-08-17T04:43:14.248Z,2.57
2018-08-17T04:45:43.209Z,3.50
2018-08-17T04:48:12.825Z,3.30
2018-08-17T04:50:41.770Z,3.67
2018-08-17T04:53:13.121Z,2.57
2018-08-17T04:55:43.685Z,2.10
2018-08-17T04:58:13.084Z,3.00
2018-08-17T05:00:44.374Z,3.70
2018-08-17T05:03:13.470Z,3.13
2018-08-17T05:05:43.241Z,2.90
2018-08-17T05:08:12.452Z,3.03
2018-08-17T05:10:41.709Z,3.30
2018-08-17T05:13:10.946Z,3.17
2018-08-17T05:15:40.035Z,3.50
2018-08-17T05:18:09.831Z,3.10
2018-08-17T05:20:39.101Z,2.90
2018-08-17T05:23:08.193Z,3.50
2018-08-17T05:25:37.286Z,3.23
2018-08-17T05:28:07.081Z,2.80
2018-08-17T05:30:43.056Z,2.77
2018-08-17T05:33:12.918Z,3.90
2018-08-17T05:35:42.049Z,3.40
2018-08-17T05:38:11.163Z,3.57
2018-08-17T05:40:40.517Z,3.57
2018-08-17T05:43:10.091Z,3.37
2018-08-17T05:45:39.267Z,3.00
2018-08-17T05:48:08.641Z,3.17
2018-08-17T05:50:37.711Z,3.27
2018-08-17T05:53:06.736Z,3.70
2018-08-17T05:55:35.784Z,4.00
2018-08-17T05:58:05.103Z,3.57
2018-08-17T06:00:34.227Z,4.07
2018-08-17T06:03:03.253Z,3.80
2018-08-17T06:05:32.285Z,3.60
2018-08-17T06:08:01.363Z,3.03
2018-08-17T06:10:30.403Z,4.13
2018-08-17T06:12:59.494Z,3.37
2018-08-17T06:15:28.521Z,3.77
2018-08-17T06:17:57.602Z,3.57
2018-08-17T06:20:27.569Z,3.03
2018-08-17T06:22:57.199Z,3.20
2018-08-17T06:25:26.242Z,3.47
2018-08-17T06:27:58.376Z,3.67
2018-08-17T06:30:27.920Z,3.10
2018-08-17T06:32:56.943Z,2.70
2018-08-17T06:35:25.933Z,3.00
2018-08-17T06:37:54.984Z,2.93
2018-08-17T06:40:24.167Z,2.70
2018-08-17T06:42:54.778Z,2.47
2018-08-17T06:45:24.388Z,2.90
2018-08-17T06:47:53.675Z,3.53
2018-08-17T06:50:22.889Z,2.83
2018-08-17T06:52:52.408Z,3.30
2018-08-17T06:55:21.698Z,2.83
2018-08-17T06:57:50.824Z,2.47
2018-08-17T07:00:22.970Z,2.43
2018-08-17T07:02:55.158Z,2.83
2018-08-17T07:05:34.382Z,2.90
2018-08-17T07:08:03.472Z,2.80
2018-08-17T07:10:33.415Z,3.07
2018-08-17T07:13:02.534Z,3.00
2018-08-17T07:15:31.640Z,2.70
2018-08-17T07:18:00.616Z,2.47
2018-08-17T07:20:29.672Z,2.93
2018-08-17T07:22:59.049Z,2.57
2018-08-17T07:25:28.789Z,3.10
2018-08-17T07:27:57.805Z,2.47
2018-08-17T07:30:26.749Z,2.90
2018-08-17T07:32:55.760Z,2.50
2018-08-17T07:35:24.767Z,3.40
2018-08-17T07:37:53.766Z,2.07
2018-08-17T07:40:23.841Z,2.30
2018-08-17T07:42:53.212Z,2.53
2018-08-17T07:45:22.268Z,2.20
2018-08-17T07:47:51.339Z,2.50
2018-08-17T07:50:22.065Z,2.40
2018-08-17T07:52:52.010Z,2.60
2018-08-17T07:55:22.055Z,2.20
2018-08-17T07:57:51.216Z,2.57
2018-08-17T08:00:20.334Z,2.37
2018-08-17T08:02:49.391Z,2.40
2018-08-17T08:05:18.444Z,2.53
2018-08-17T08:07:48.205Z,2.10
2018-08-17T08:10:17.430Z,2.50
2018-08-17T08:12:46.438Z,2.07
2018-08-17T08:15:16.302Z,1.97
2018-08-17T08:17:45.704Z,1.70
2018-08-17T08:20:28.440Z,2.07
2018-08-17T08:23:30.837Z,2.30
2018-08-17T08:26:00.086Z,1.73
2018-08-17T08:28:29.630Z,1.97
2018-08-17T08:30:58.764Z,1.50
2018-08-17T08:33:27.834Z,1.63
2018-08-17T08:35:58.330Z,1.70
2018-08-17T08:38:29.232Z,1.90
2018-08-17T08:40:58.987Z,1.97
2018-08-17T08:43:28.066Z,1.80
2018-08-17T08:45:57.112Z,2.30
2018-08-17T08:48:27.786Z,2.23
2018-08-17T08:50:56.840Z,2.20
2018-08-17T08:53:26.217Z,2.30
2018-08-17T08:55:55.991Z,2.53
2018-08-17T08:58:26.401Z,2.43
2018-08-17T09:00:55.870Z,2.23
2018-08-17T09:03:25.427Z,2.13
2018-08-17T09:05:54.540Z,1.77
2018-08-17T09:08:24.851Z,2.00
2018-08-17T09:10:53.945Z,2.10
2018-08-17T09:13:24.472Z,1.90
2018-08-17T09:15:55.061Z,1.80
2018-08-17T09:18:24.154Z,1.57
2018-08-17T09:20:54.320Z,2.10
2018-08-17T09:23:23.929Z,1.90
2018-08-17T09:25:53.024Z,1.90
2018-08-17T09:28:22.349Z,1.50
2018-08-17T09:30:51.451Z,1.47
2018-08-17T09:33:21.364Z,1.50
2018-08-17T09:35:52.244Z,1.73
2018-08-17T09:38:22.078Z,1.27
2018-08-17T09:40:52.789Z,1.33
2018-08-17T09:43:29.810Z,1.53
2018-08-17T09:46:01.295Z,1.40
2018-08-17T09:48:30.524Z,1.30
2018-08-17T09:51:00.696Z,1.77
2018-08-17T09:53:34.324Z,1.40
2018-08-17T09:56:05.565Z,1.23
2018-08-17T09:58:37.157Z,1.77
2018-08-17T10:01:11.771Z,1.40
2018-08-17T10:03:43.887Z,1.57
2018-08-17T10:06:22.685Z,1.90
2018-08-17T10:08:58.693Z,2.03
2018-08-17T10:11:33.921Z,1.83
2018-08-17T10:14:05.371Z,1.90
2018-08-17T10:16:38.419Z,2.13
2018-08-17T10:19:09.020Z,2.07
2018-08-17T10:21:48.204Z,1.87
2018-08-17T10:24:19.450Z,1.87
2018-08-17T10:26:51.140Z,2.40
2018-08-17T10:29:22.589Z,2.13
2018-08-17T10:31:57.291Z,2.00
2018-08-17T10:34:29.192Z,1.90
2018-08-17T10:36:59.091Z,2.10
2018-08-17T10:39:29.104Z,2.00
2018-08-17T10:41:59.361Z,2.00
2018-08-17T10:44:30.304Z,2.20
2018-08-17T10:47:00.799Z,1.77
2018-08-17T10:49:31.621Z,2.10
2018-08-17T10:52:06.607Z,2.33
2018-08-17T10:54:41.875Z,2.17
2018-08-17T10:57:12.362Z,1.80
2018-08-17T10:59:44.305Z,2.40
2018-08-17T11:02:16.679Z,1.60
2018-08-17T11:04:49.991Z,1.77
2018-08-17T11:07:39.788Z,1.67
2018-08-17T11:10:12.545Z,1.90
2018-08-17T11:12:44.700Z,2.30
2018-08-17T11:15:21.055Z,1.80
2018-08-17T11:18:01.521Z,1.70
2018-08-17T11:23:17.166Z,1.87
2018-08-17T11:25:46.434Z,1.60
2018-08-17T11:28:15.749Z,1.57
2018-08-17T11:30:58.508Z,1.43
2018-08-17T11:33:35.692Z,1.83
2018-08-17T11:36:07.084Z,1.53
2018-08-17T11:38:45.913Z,1.67
2018-08-17T11:41:19.995Z,3.50
2018-08-17T11:43:50.822Z,1.60
2018-08-17T11:46:19.973Z,1.67
2018-08-17T11:48:50.402Z,2.53
2018-08-17T11:51:19.643Z,2.23
2018-08-17T11:53:49.331Z,1.77
2018-08-17T11:56:20.074Z,2.03
2018-08-17T11:58:50.220Z,2.03
2018-08-17T12:01:24.293Z,1.80
2018-08-17T12:03:53.411Z,2.87
2018-08-17T12:06:24.360Z,2.20
2018-08-17T12:08:53.773Z,1.60
2018-08-17T12:11:22.830Z,2.07
2018-08-17T12:13:51.933Z,1.00
2018-08-17T12:16:21.782Z,1.83
2018-08-17T12:18:51.666Z,2.00
2018-08-17T12:21:21.352Z,1.40
2018-08-17T12:23:52.913Z,2.03
2018-08-17T12:26:23.528Z,1.77
2018-08-17T12:28:53.296Z,1.60
2018-08-17T12:31:24.109Z,2.57
2018-08-17T12:33:53.473Z,1.80
2018-08-17T12:36:22.656Z,1.77
2018-08-17T12:38:51.701Z,1.70
2018-08-17T12:41:21.585Z,2.50
2018-08-17T12:43:50.686Z,2.00
2018-08-17T12:46:19.804Z,2.50
2018-08-17T12:48:49.805Z,1.70
2018-08-17T12:51:20.814Z,1.90
2018-08-17T12:53:49.939Z,1.93
2018-08-17T12:56:18.853Z,1.67
2018-08-17T12:58:47.860Z,2.43
2018-08-17T13:01:21.423Z,2.63
2018-08-17T13:03:50.731Z,2.00
2018-08-17T13:06:19.863Z,2.33
2018-08-17T13:08:48.990Z,2.17
2018-08-17T13:11:20.588Z,2.00
2018-08-17T13:13:58.426Z,2.50
2018-08-17T13:16:27.489Z,4.83
2018-08-17T13:18:58.715Z,3.77
2018-08-17T13:21:28.854Z,2.37
2018-08-17T13:23:57.855Z,2.13
2018-08-17T13:26:26.792Z,2.17
2018-08-17T13:28:55.757Z,2.17
2018-08-17T13:31:27.808Z,2.40
2018-08-17T13:33:56.701Z,2.20
2018-08-17T13:36:28.364Z,2.13
2018-08-17T13:38:57.328Z,3.17
2018-08-17T13:41:27.673Z,2.37
2018-08-17T13:43:56.714Z,2.40
2018-08-17T13:46:26.387Z,2.47
2018-08-17T13:48:56.476Z,2.50
2018-08-17T13:51:25.541Z,6.57
2018-08-17T13:53:54.518Z,1.97
2018-08-17T13:56:23.483Z,2.00
2018-08-17T13:58:52.455Z,1.90
2018-08-17T14:01:21.667Z,2.30
2018-08-17T14:03:50.621Z,4.30
2018-08-17T14:06:19.601Z,1.93
2018-08-17T14:08:48.603Z,1.77
2018-08-17T14:11:18.567Z,4.53
2018-08-17T14:13:48.181Z,2.37
2018-08-17T14:16:17.089Z,2.00
2018-08-17T14:18:46.287Z,2.50
2018-08-17T14:21:15.349Z,5.27
2018-08-17T14:23:44.625Z,3.10
2018-08-17T14:26:13.699Z,2.50
2018-08-17T14:28:42.743Z,3.13
2018-08-17T14:31:11.880Z,2.33
2018-08-17T14:33:41.869Z,2.53
2018-08-17T14:36:11.347Z,2.83
2018-08-17T14:38:41.466Z,3.10
2018-08-17T14:41:10.555Z,2.50
2018-08-17T14:43:39.629Z,2.77
2018-08-17T14:46:08.551Z,3.13
2018-08-17T14:48:37.498Z,3.03
2018-08-17T14:51:07.944Z,3.53
2018-08-17T14:53:37.701Z,2.57
2018-08-17T14:56:07.334Z,3.10
2018-08-17T14:58:36.640Z,3.10
2018-08-17T15:01:06.659Z,3.53
2018-08-17T15:03:42.594Z,3.33
2018-08-17T15:06:11.616Z,5.73
2018-08-17T15:08:40.651Z,5.30
2018-08-17T15:11:09.700Z,5.67
2018-08-17T15:13:38.980Z,2.60
2018-08-17T15:16:08.072Z,3.23
2018-08-17T15:18:37.073Z,5.00
2018-08-17T15:21:06.168Z,4.33
2018-08-17T15:23:35.973Z,3.80
2018-08-17T15:26:05.000Z,3.57
2018-08-17T15:28:34.181Z,2.87
2018-08-17T15:31:03.462Z,3.07
2018-08-17T15:33:32.491Z,5.77
2018-08-17T15:36:02.768Z,4.07
2018-08-17T15:38:32.542Z,3.27
2018-08-17T15:41:01.741Z,3.53
2018-08-17T15:43:31.776Z,4.80
2018-08-17T15:46:02.094Z,3.70
2018-08-17T15:48:39.309Z,3.47
2018-08-17T15:51:10.752Z,3.47
2018-08-17T15:53:40.638Z,5.03
2018-08-17T15:56:10.352Z,3.43
2018-08-17T15:58:39.484Z,4.93
2018-08-17T16:01:09.982Z,3.83
2018-08-17T16:03:42.743Z,3.90
2018-08-17T16:06:13.294Z,3.73
2018-08-17T16:08:42.468Z,3.93
2018-08-17T16:11:11.482Z,3.57
2018-08-17T16:13:40.477Z,3.17
2018-08-17T16:16:09.508Z,4.17
2018-08-17T16:18:38.527Z,3.27
2018-08-17T16:21:07.786Z,4.10
2018-08-17T16:23:36.857Z,3.90
2018-08-17T16:26:05.988Z,3.50
2018-08-17T16:28:35.666Z,4.20
2018-08-17T16:31:04.736Z,4.00
2018-08-17T16:33:35.069Z,4.67
2018-08-17T16:36:04.218Z,4.73
2018-08-17T16:38:37.660Z,3.37
2018-08-17T16:41:07.501Z,2.90
2018-08-17T16:43:43.209Z,3.80
2018-08-17T16:46:12.751Z,3.50
2018-08-17T16:48:42.555Z,3.23
2018-08-17T16:51:12.105Z,4.77
2018-08-17T16:53:41.089Z,3.70
2018-08-17T16:56:10.065Z,3.23
2018-08-17T16:58:39.860Z,3.97
2018-08-17T17:01:08.792Z,4.97
2018-08-17T17:03:38.451Z,3.70
2018-08-17T17:06:08.032Z,3.80
2018-08-17T17:08:37.055Z,4.33
2018-08-17T17:11:07.744Z,3.60
2018-08-17T17:13:40.567Z,4.80
2018-08-17T17:16:09.749Z,3.10
2018-08-17T17:18:53.039Z,4.60
2018-08-17T17:21:22.092Z,3.33
2018-08-17T17:23:57.299Z,3.67
2018-08-17T17:26:26.939Z,2.90
2018-08-17T17:28:56.142Z,3.40
2018-08-17T17:31:25.650Z,3.13
2018-08-17T17:33:54.713Z,3.73
2018-08-17T17:36:23.912Z,3.43
2018-08-17T17:38:52.828Z,4.13
2018-08-17T17:41:21.881Z,4.30
2018-08-17T17:43:51.947Z,4.07
2018-08-17T17:46:20.997Z,3.70
2018-08-17T17:48:49.964Z,4.63
2018-08-17T17:51:19.264Z,3.40
2018-08-17T17:53:48.280Z,3.83
2018-08-17T17:56:18.219Z,4.27
2018-08-17T17:58:47.227Z,3.57
2018-08-17T18:01:16.204Z,3.97
2018-08-17T18:03:47.822Z,3.80
2018-08-17T18:06:16.947Z,3.67
2018-08-17T18:08:46.039Z,3.50
2018-08-17T18:11:15.158Z,2.97
2018-08-17T18:13:44.199Z,3.27
2018-08-17T18:16:13.240Z,3.17
2018-08-17T18:18:42.312Z,2.90
2018-08-17T18:21:11.356Z,2.90
2018-08-17T18:23:41.344Z,3.10
2018-08-17T18:26:15.855Z,3.97
2018-08-17T18:28:44.890Z,3.03
2018-08-17T18:31:14.484Z,3.43
2018-08-17T18:33:44.072Z,3.33
2018-08-17T18:36:16.645Z,3.03
2018-08-17T18:38:46.331Z,3.40
2018-08-17T18:41:16.059Z,3.00
2018-08-17T18:43:45.804Z,3.30
2018-08-17T18:46:14.820Z,3.17
2018-08-17T18:48:43.941Z,3.00
2018-08-17T18:51:13.268Z,3.00
2018-08-17T18:53:42.296Z,2.90
2018-08-17T18:56:11.990Z,3.67
2018-08-17T18:58:41.080Z,2.37
2018-08-17T19:01:10.062Z,2.17
2018-08-17T19:03:39.233Z,2.50
2018-08-17T19:06:08.509Z,2.27
2018-08-17T19:08:37.997Z,2.37
2018-08-17T19:11:07.337Z,2.40
2018-08-17T19:13:36.669Z,2.30
2018-08-17T19:16:06.175Z,2.57
2018-08-17T19:18:35.347Z,2.27
2018-08-17T19:21:09.888Z,2.97
2018-08-17T19:23:39.268Z,2.63
2018-08-17T19:26:10.106Z,2.30
2018-08-17T19:28:39.682Z,2.93
2018-08-17T19:31:10.010Z,2.20
2018-08-17T19:33:40.005Z,2.90
2018-08-17T19:36:09.145Z,2.50
2018-08-17T19:38:41.713Z,2.67
2018-08-17T19:41:10.905Z,3.50
2018-08-17T19:43:40.463Z,3.60
2018-08-17T19:46:09.716Z,3.30
2018-08-17T19:48:39.585Z,3.13
2018-08-17T19:51:18.918Z,3.30
2018-08-17T19:53:48.822Z,3.20
2018-08-17T19:56:17.836Z,2.87
2018-08-17T19:58:46.997Z,3.30
2018-08-17T20:01:16.116Z,3.40
2018-08-17T20:03:45.311Z,3.33
2018-08-17T20:06:14.842Z,3.77
2018-08-17T20:08:44.133Z,3.80
2018-08-17T20:11:14.428Z,4.00
2018-08-17T20:13:43.982Z,4.63
2018-08-17T20:16:21.061Z,3.70
2018-08-17T20:18:55.843Z,3.67
2018-08-17T20:21:26.268Z,3.23
2018-08-17T20:23:55.569Z,2.80
2018-08-17T20:26:25.916Z,4.07
2018-08-17T20:28:55.356Z,3.13
2018-08-17T20:31:24.284Z,3.63
2018-08-17T20:33:53.672Z,3.77
2018-08-17T20:36:24.248Z,3.63
2018-08-17T20:38:53.685Z,3.90
2018-08-17T20:41:22.691Z,3.60
2018-08-17T20:43:51.692Z,4.10
2018-08-17T20:46:20.942Z,3.93
2018-08-17T20:48:51.454Z,3.10
2018-08-17T20:51:26.586Z,3.30
2018-08-17T20:53:58.172Z,3.80
2018-08-17T20:56:28.300Z,4.03
2018-08-17T20:58:57.521Z,3.43
2018-08-17T21:01:26.749Z,3.87
2018-08-17T21:03:55.757Z,3.80
2018-08-17T21:06:25.126Z,3.83
2018-08-17T21:08:55.344Z,3.53
2018-08-17T21:11:24.850Z,4.23
2018-08-17T21:13:54.016Z,3.63
2018-08-17T21:16:23.435Z,3.53
2018-08-17T21:18:53.203Z,3.77
2018-08-17T21:21:23.231Z,3.93
2018-08-17T21:23:52.442Z,3.80
2018-08-17T21:26:21.828Z,3.20
2018-08-17T21:28:52.954Z,4.37
2018-08-17T21:31:22.356Z,4.13
2018-08-17T21:33:53.675Z,3.57
2018-08-17T21:36:22.923Z,4.23
2018-08-17T21:39:06.695Z,4.27
2018-08-17T21:41:35.677Z,4.23
2018-08-17T21:44:04.874Z,3.80
2018-08-17T21:46:37.906Z,4.10
2018-08-17T21:49:07.841Z,3.87
2018-08-17T21:51:37.363Z,3.80
2018-08-17T21:54:06.696Z,3.70
2018-08-17T21:56:35.781Z,3.30
2018-08-17T21:59:05.793Z,4.13
2018-08-17T22:01:34.918Z,4.07
2018-08-17T22:04:03.888Z,3.57
2018-08-17T22:06:32.974Z,3.60
2018-08-17T22:09:02.020Z,3.80
2018-08-17T22:11:36.576Z,3.90
2018-08-17T22:14:06.197Z,3.90
2018-08-17T22:16:37.839Z,3.77
2018-08-17T22:19:09.355Z,3.33
2018-08-17T22:21:38.940Z,3.70
2018-08-17T22:24:08.047Z,3.53
2018-08-17T22:26:37.642Z,3.83
2018-08-17T22:29:08.404Z,3.47
2018-08-17T22:31:40.476Z,3.30
2018-08-17T22:34:09.505Z,3.53
2018-08-17T22:36:38.737Z,4.20
2018-08-17T22:39:11.574Z,3.60
2018-08-17T22:41:40.586Z,3.50
2018-08-17T22:44:15.533Z,4.00
2018-08-17T22:46:45.222Z,4.40
2018-08-17T22:49:14.489Z,3.97
2018-08-17T22:51:43.526Z,3.70
2018-08-17T22:54:12.840Z,3.83
2018-08-17T22:56:41.970Z,4.00
2018-08-17T22:59:11.317Z,3.67
2018-08-17T23:01:40.510Z,4.27
2018-08-17T23:04:09.543Z,4.27
2018-08-17T23:06:38.716Z,4.03
2018-08-17T23:09:07.802Z,3.60
2018-08-17T23:11:38.451Z,4.03
2018-08-17T23:14:14.169Z,4.07
2018-08-17T23:16:44.236Z,3.73
2018-08-17T23:19:13.501Z,3.40
2018-08-17T23:21:42.544Z,4.00
2018-08-17T23:24:12.776Z,4.17
2018-08-17T23:26:41.842Z,3.80
2018-08-17T23:29:11.452Z,4.17
2018-08-17T23:31:52.972Z,3.97
2018-08-17T23:34:22.082Z,4.40
2018-08-17T23:36:51.272Z,3.50
2018-08-17T23:39:20.357Z,4.00
2018-08-17T23:41:49.498Z,4.37
2018-08-17T23:44:19.128Z,4.40
2018-08-17T23:46:48.243Z,4.27
2018-08-17T23:49:17.302Z,5.50
2018-08-17T23:51:46.413Z,6.87
2018-08-17T23:54:15.816Z,3.97
2018-08-17T23:56:45.236Z,4.23
2018-08-17T23:59:14.370Z,4.43
